Time;durP1;ratioP1;P1;durP2;ratioP2;P2;SDS_P1;SDS_P2;PMS_P1;PMS_P2;Temp;Humidity;BMP_temperature;BMP_pressure;BME280_temperature;BME280_humidity;BME280_pressure;Samples;Min_cycle;Max_cycle;Signal;HPM_P1;HPM_P2
2021/09/10 00:00:47;;;;;;;6.47;3.58;;;;;;;13.70;96.21;95338.38;5124195;27;20054;-73
2021/09/10 00:03:14;;;;;;;4.25;2.63;;;;;;;13.72;96.08;95338.13;5106709;27;20047;-74
2021/09/10 00:05:41;;;;;;;6.00;3.20;;;;;;;13.63;96.77;95334.31;5107684;27;20054;-74
2021/09/10 00:08:08;;;;;;;4.32;2.58;;;;;;;13.65;97.11;95334.88;5108321;27;20039;-74
2021/09/10 00:10:35;;;;;;;5.28;3.00;;;;;;;13.60;96.94;95321.72;5110645;27;20065;-74
2021/09/10 00:13:02;;;;;;;4.85;3.08;;;;;;;13.64;96.48;95325.44;5122877;27;20116;-74
2021/09/10 00:15:28;;;;;;;6.55;3.15;;;;;;;13.57;95.91;95331.63;5117333;27;20096;-74
2021/09/10 00:17:55;;;;;;;4.75;2.72;;;;;;;13.64;95.80;95335.91;5112676;27;20061;-74
2021/09/10 00:20:22;;;;;;;3.85;2.80;;;;;;;13.65;96.26;95337.50;5104244;27;20055;-74
2021/09/10 00:22:49;;;;;;;6.72;3.30;;;;;;;13.64;96.32;95335.91;5106577;28;20107;-74
2021/09/10 00:25:16;;;;;;;6.18;3.15;;;;;;;13.66;96.19;95339.09;5116696;27;20063;-74
2021/09/10 00:27:43;;;;;;;4.40;2.50;;;;;;;13.65;96.35;95342.72;5114688;27;20695;-74
2021/09/10 00:30:10;;;;;;;3.15;2.45;;;;;;;13.66;96.09;95339.09;5102179;27;20036;-74
2021/09/10 00:32:37;;;;;;;7.63;2.83;;;;;;;13.73;96.38;95339.72;5112899;27;20042;-74
2021/09/10 00:35:04;;;;;;;6.10;3.10;;;;;;;13.72;96.08;95338.13;5126004;27;20039;-74
2021/09/10 00:37:31;;;;;;;7.45;3.00;;;;;;;13.66;96.13;95339.09;5109881;27;20040;-73
2021/09/10 00:39:58;;;;;;;4.57;2.80;;;;;;;13.70;96.74;95345.44;5115201;27;20043;-74
2021/09/10 00:42:25;;;;;;;3.40;2.70;;;;;;;13.65;96.86;95327.03;5103268;27;20104;-74
2021/09/10 00:44:51;;;;;;;4.53;2.65;;;;;;;13.63;97.33;95331.72;5112500;27;20068;-75
2021/09/10 00:47:19;;;;;;;2.92;2.30;;;;;;;13.66;97.50;95328.63;5110721;27;20056;-74
2021/09/10 00:49:45;;;;;;;4.22;2.42;;;;;;;13.66;97.72;95323.38;5112153;27;20093;-74
2021/09/10 00:52:12;;;;;;;5.22;2.72;;;;;;;13.66;97.60;95324.16;5110475;27;20042;-74
2021/09/10 00:54:39;;;;;;;3.63;2.58;;;;;;;13.63;98.19;95313.38;5120170;27;20047;-75
2021/09/10 00:57:06;;;;;;;3.55;2.72;;;;;;;13.68;98.64;95321.31;5114033;27;20485;-75
2021/09/10 00:59:33;;;;;;;4.15;2.40;;;;;;;13.65;98.78;95327.03;5110228;28;20041;-75
2021/09/10 01:02:01;;;;;;;5.68;2.83;;;;;;;13.58;98.86;95301.03;5108326;28;20143;-75
2021/09/10 01:04:29;;;;;;;4.43;2.80;;;;;;;13.64;98.62;95314.97;5090669;28;20047;-75
2021/09/10 01:06:56;;;;;;;4.22;2.97;;;;;;;13.63;98.42;95308.16;5114895;28;20452;-76
2021/09/10 01:09:25;;;;;;;3.83;2.72;;;;;;;13.65;98.73;95316.56;5117451;28;20069;-75
2021/09/10 01:11:53;;;;;;;4.65;3.13;;;;;;;13.65;98.41;95306.09;5120054;28;20073;-75
2021/09/10 01:14:20;;;;;;;4.05;2.67;;;;;;;13.70;98.35;95319.25;5118195;28;20036;-75
2021/09/10 01:16:48;;;;;;;5.75;3.42;;;;;;;13.66;98.61;95318.94;5121519;28;20088;-75
2021/09/10 01:19:29;;;;;;;3.78;2.10;;;;;;;13.67;98.92;95324.97;5105090;28;20031;-74
2021/09/10 01:22:04;;;;;;;3.28;2.67;;;;;;;13.66;99.40;95307.69;5118461;27;20043;-75
2021/09/10 01:24:36;;;;;;;5.95;3.05;;;;;;;13.72;99.06;95312.75;5123777;27;20995;-74
2021/09/10 01:27:05;;;;;;;3.13;2.30;;;;;;;13.73;99.15;95308.31;5123900;27;20046;-75
2021/09/10 01:29:33;;;;;;;4.47;2.78;;;;;;;13.79;98.76;95306.56;5111077;27;20043;-75
2021/09/10 01:32:01;;;;;;;4.32;2.92;;;;;;;13.61;98.84;95294.50;5107423;27;20092;-75
2021/09/10 01:34:28;;;;;;;4.72;2.95;;;;;;;13.64;99.54;95310.53;5121203;27;20047;-75
2021/09/10 01:36:55;;;;;;;4.38;2.72;;;;;;;13.57;99.88;95305.44;5119324;27;20042;-75
2021/09/10 01:39:21;;;;;;;4.85;3.10;;;;;;;13.58;100.00;95308.88;5119574;27;20035;-75
2021/09/10 01:41:48;;;;;;;3.67;2.75;;;;;;;13.34;100.00;95305.59;5098293;27;20419;-75
2021/09/10 01:44:15;;;;;;;5.03;3.15;;;;;;;13.30;100.00;95309.69;5121140;27;20040;-75
2021/09/10 01:46:42;;;;;;;4.30;3.58;;;;;;;13.22;100.00;95299.59;5123508;27;20035;-75
2021/09/10 01:49:08;;;;;;;4.47;2.92;;;;;;;13.30;100.00;95300.00;5118047;27;20051;-75
2021/09/10 01:51:35;;;;;;;7.75;3.13;;;;;;;13.37;100.00;95310.38;5124314;27;20092;-76
2021/09/10 01:54:02;;;;;;;5.28;3.90;;;;;;;13.37;100.00;95299.91;5114337;27;20061;-75
2021/09/10 01:56:29;;;;;;;4.35;3.65;;;;;;;13.38;100.00;95296.25;5115748;27;20035;-75
2021/09/10 01:58:56;;;;;;;5.05;3.20;;;;;;;13.46;100.00;95314.16;5115937;27;20035;-75
2021/09/10 02:01:24;;;;;;;3.80;3.22;;;;;;;13.49;100.00;95316.31;5096223;27;20047;-74
2021/09/10 02:03:51;;;;;;;3.63;2.80;;;;;;;13.44;100.00;95299.75;5117687;27;20100;-75
2021/09/10 02:06:19;;;;;;;4.43;3.05;;;;;;;13.50;100.00;95302.19;5121871;27;20053;-75
2021/09/10 02:08:46;;;;;;;4.75;3.70;;;;;;;13.51;100.00;95311.66;5124083;27;20492;-75
2021/09/10 02:11:13;;;;;;;5.03;3.03;;;;;;;13.52;100.00;95318.47;5119201;27;20089;-75
2021/09/10 02:13:40;;;;;;;3.53;3.00;;;;;;;13.44;100.00;95311.00;5121705;27;20104;-76
2021/09/10 02:16:08;;;;;;;4.57;3.30;;;;;;;13.51;100.00;95311.66;5117734;27;20056;-74
2021/09/10 02:18:35;;;;;;;5.22;3.35;;;;;;;13.52;100.00;95312.44;5115803;27;20050;-75
2021/09/10 02:21:02;;;;;;;5.00;3.28;;;;;;;13.40;100.00;95288.97;5120327;27;20050;-75
2021/09/10 02:23:29;;;;;;;3.90;2.83;;;;;;;13.42;100.00;95297.38;5102339;27;20051;-75
2021/09/10 02:25:57;;;;;;;4.25;3.08;;;;;;;13.29;100.00;95308.09;5110219;27;21374;-76
2021/09/10 02:28:24;;;;;;;4.82;3.25;;;;;;;13.19;100.00;95309.50;5120188;27;20519;-75
2021/09/10 02:30:52;;;;;;;4.70;3.35;;;;;;;13.17;100.00;95301.09;5114094;27;20132;-75
2021/09/10 02:33:19;;;;;;;4.25;3.33;;;;;;;13.29;100.00;95308.09;5120419;27;20046;-76
2021/09/10 02:35:45;;;;;;;5.25;3.42;;;;;;;13.33;100.00;95309.25;5124328;27;20039;-76
2021/09/10 02:38:13;;;;;;;4.88;3.50;;;;;;;13.26;100.00;95300.72;5115510;27;20043;-76
2021/09/10 02:40:39;;;;;;;5.32;3.30;;;;;;;13.12;100.00;95303.63;5120473;27;20043;-75
2021/09/10 02:43:06;;;;;;;5.28;3.67;;;;;;;13.14;100.00;95301.59;5115393;27;20042;-75
2021/09/10 02:45:33;;;;;;;4.75;3.20;;;;;;;13.24;100.00;95305.41;5114299;27;20412;-76
2021/09/10 02:48:00;;;;;;;4.10;3.05;;;;;;;13.15;100.00;95287.47;5116049;27;20043;-76
2021/09/10 02:50:27;;;;;;;4.32;3.28;;;;;;;13.34;100.00;95309.03;5114646;27;20451;-75
2021/09/10 02:52:56;;;;;;;6.22;3.67;;;;;;;13.23;100.00;95298.56;5096008;27;20070;-75
2021/09/10 02:55:24;;;;;;;6.85;3.88;;;;;;;13.25;100.00;95306.97;5113853;27;20044;-75
2021/09/10 02:57:50;;;;;;;5.30;3.15;;;;;;;13.28;100.00;95304.69;5115020;27;20390;-74
2021/09/10 03:00:21;;;;;;;5.63;4.03;;;;;;;13.22;100.00;95294.38;5112643;27;20708;-74
2021/09/10 03:02:49;;;;;;;5.60;3.55;;;;;;;13.26;100.00;95298.13;5111105;27;20039;-73
2021/09/10 03:05:16;;;;;;;5.85;4.25;;;;;;;13.30;100.00;95299.22;5119399;27;20115;-75
2021/09/10 03:07:43;;;;;;;5.22;3.63;;;;;;;13.34;100.00;95303.78;5120686;27;20047;-75
2021/09/10 03:10:10;;;;;;;3.53;2.60;;;;;;;13.32;100.00;95302.41;5102203;27;20035;-75
2021/09/10 03:12:40;;;;;;;4.43;2.70;;;;;;;13.31;100.00;95306.09;5114408;27;20039;-75
2021/09/10 03:15:10;;;;;;;5.65;3.35;;;;;;;13.35;100.00;95313.22;5127522;27;20043;-74
2021/09/10 03:17:37;;;;;;;2.90;2.60;;;;;;;13.29;100.00;95305.47;5116137;27;20404;-75
2021/09/10 03:20:05;;;;;;;6.45;3.60;;;;;;;13.30;100.00;95305.25;5110375;27;20046;-75
2021/09/10 03:22:32;;;;;;;4.28;3.20;;;;;;;13.34;100.00;95318.66;5120598;27;20043;-74
2021/09/10 03:25:00;;;;;;;5.07;3.10;;;;;;;13.32;100.00;95318.13;5121710;27;20043;-75
2021/09/10 03:27:27;;;;;;;7.25;4.07;;;;;;;13.33;100.00;95319.72;5109303;27;20507;-75
2021/09/10 03:29:55;;;;;;;5.43;3.70;;;;;;;13.30;100.00;95310.47;5112138;27;20043;-75
2021/09/10 03:32:22;;;;;;;5.15;3.58;;;;;;;13.27;100.00;95315.38;5116545;27;20050;-75
2021/09/10 03:34:49;;;;;;;4.07;2.92;;;;;;;13.26;100.00;95309.38;5117085;27;20531;-75
2021/09/10 03:37:17;;;;;;;4.88;3.40;;;;;;;13.32;99.99;95323.34;5111135;27;20043;-75
2021/09/10 03:39:44;;;;;;;4.40;3.22;;;;;;;13.29;100.00;95310.69;5120046;27;20031;-75
2021/09/10 03:42:11;;;;;;;6.57;2.70;;;;;;;13.29;100.00;95321.16;5117636;27;20043;-75
2021/09/10 03:44:38;;;;;;;4.80;3.70;;;;;;;13.26;100.00;95324.28;5116209;27;20039;-75
2021/09/10 03:47:05;;;;;;;6.00;3.67;;;;;;;13.25;99.45;95327.91;5110389;27;20450;-75
2021/09/10 03:49:33;;;;;;;5.00;3.35;;;;;;;13.20;99.26;95326.78;5114737;27;20695;-75
2021/09/10 03:52:00;;;;;;;5.40;3.70;;;;;;;13.20;99.28;95320.78;5116743;27;20476;-75
2021/09/10 03:54:27;;;;;;;5.35;3.42;;;;;;;13.14;99.43;95322.50;5113679;27;20451;-75
2021/09/10 03:56:54;;;;;;;6.45;3.53;;;;;;;13.13;99.27;95320.91;5109883;27;20036;-75
2021/09/10 03:59:21;;;;;;;9.35;3.67;;;;;;;13.10;100.00;95326.59;5111927;27;20032;-75
2021/09/10 04:01:48;;;;;;;4.25;3.45;;;;;;;13.09;100.00;95325.03;5106837;27;20047;-74
2021/09/10 04:04:15;;;;;;;3.83;3.08;;;;;;;13.08;100.00;95323.44;5112072;27;20417;-74
2021/09/10 04:06:42;;;;;;;6.22;3.85;;;;;;;13.03;100.00;95320.72;5112689;27;20528;-74
2021/09/10 04:09:09;;;;;;;6.43;4.15;;;;;;;13.06;100.00;95335.94;5109776;27;20035;-74
2021/09/10 04:11:37;;;;;;;5.80;3.60;;;;;;;13.03;100.00;95336.41;5105879;28;20044;-75
2021/09/10 04:14:04;;;;;;;5.55;4.28;;;;;;;13.04;100.00;95335.41;5107195;28;20121;-74
2021/09/10 04:16:33;;;;;;;7.45;4.70;;;;;;;12.91;100.00;95338.28;5118818;27;20075;-74
2021/09/10 04:19:01;;;;;;;4.97;3.83;;;;;;;12.96;100.00;95346.22;5090646;27;20043;-75
2021/09/10 04:21:28;;;;;;;9.15;4.82;;;;;;;12.99;100.00;95337.91;5118912;27;20050;-74
2021/09/10 04:23:55;;;;;;;4.57;3.50;;;;;;;12.99;100.00;95335.28;5112915;27;20039;-74
2021/09/10 04:26:22;;;;;;;7.00;4.72;;;;;;;12.92;100.00;95324.97;5108661;27;20054;-74
2021/09/10 04:28:49;;;;;;;5.60;3.95;;;;;;;12.97;100.00;95337.34;5114753;27;20047;-74
2021/09/10 04:31:19;;;;;;;4.68;3.80;;;;;;;13.06;100.00;95343.00;5126375;27;20043;-73
2021/09/10 04:33:47;;;;;;;5.78;4.00;;;;;;;13.05;100.00;95344.81;5125447;27;20043;-74
2021/09/10 04:36:15;;;;;;;6.22;4.43;;;;;;;13.03;100.00;95335.63;5120334;27;20100;-74
2021/09/10 04:38:42;;;;;;;5.70;3.88;;;;;;;13.10;100.00;95347.53;5114695;27;20458;-75
2021/09/10 04:41:09;;;;;;;8.10;4.53;;;;;;;12.89;100.00;95340.31;5114765;27;20031;-74
2021/09/10 04:43:36;;;;;;;5.90;4.03;;;;;;;12.90;100.00;95341.94;5116708;27;20039;-73
2021/09/10 04:46:03;;;;;;;6.30;4.50;;;;;;;12.97;100.00;95351.22;5114563;27;20039;-75
2021/09/10 04:48:30;;;;;;;5.53;3.92;;;;;;;12.95;100.00;95347.25;5111337;27;20055;-76
2021/09/10 04:50:57;;;;;;;7.60;4.65;;;;;;;13.03;100.00;95341.63;5117590;27;20046;-75
2021/09/10 04:53:23;;;;;;;5.50;4.00;;;;;;;13.00;100.00;95332.47;5114973;27;20047;-75
2021/09/10 04:55:51;;;;;;;5.30;3.58;;;;;;;13.14;100.00;95342.63;5099648;27;20037;-75
2021/09/10 04:58:17;;;;;;;4.43;3.28;;;;;;;13.03;100.00;95346.88;5114960;27;20485;-75
2021/09/10 05:00:44;;;;;;;7.25;3.92;;;;;;;13.08;100.00;95359.25;5112872;27;20055;-75
2021/09/10 05:03:11;;;;;;;5.50;3.92;;;;;;;13.03;100.00;95362.56;5120104;28;20492;-75
2021/09/10 05:05:38;;;;;;;6.50;4.80;;;;;;;13.06;100.00;95356.88;5114449;28;20097;-74
2021/09/10 05:08:05;;;;;;;8.65;5.25;;;;;;;13.01;100.00;95349.72;5117107;28;20049;-74
2021/09/10 05:10:32;;;;;;;5.35;4.28;;;;;;;13.19;100.00;95351.34;5115629;28;20416;-74
2021/09/10 05:12:59;;;;;;;6.65;4.60;;;;;;;13.38;100.00;95357.22;5111822;28;20039;-75
2021/09/10 05:15:26;;;;;;;5.85;4.22;;;;;;;13.47;100.00;95339.31;5114988;28;20058;-74
2021/09/10 05:17:53;;;;;;;7.63;4.45;;;;;;;13.53;100.00;95340.19;5101222;28;20638;-75
2021/09/10 05:20:19;;;;;;;6.18;4.82;;;;;;;13.61;100.00;95341.63;5117691;28;20415;-74
2021/09/10 05:22:46;;;;;;;5.75;4.45;;;;;;;13.77;100.00;95349.50;5121236;28;20039;-75
2021/09/10 05:25:13;;;;;;;5.82;4.32;;;;;;;13.85;100.00;95332.59;5125860;28;20035;-75
2021/09/10 05:27:40;;;;;;;8.18;5.30;;;;;;;13.96;100.00;95342.19;5119832;28;20541;-75
2021/09/10 05:30:07;;;;;;;7.88;5.55;;;;;;;14.07;100.00;95339.72;5107088;28;20093;-75
2021/09/10 05:32:34;;;;;;;7.85;5.35;;;;;;;14.20;100.00;95349.84;5096014;28;20035;-75
2021/09/10 05:35:01;;;;;;;9.38;5.45;;;;;;;14.17;100.00;95339.88;5097580;28;20111;-76
2021/09/10 05:37:28;;;;;;;8.25;5.72;;;;;;;14.17;100.00;95339.88;5105445;28;20477;-74
2021/09/10 05:39:54;;;;;;;7.80;4.90;;;;;;;14.29;100.00;95348.41;5115747;28;20039;-75
2021/09/10 05:42:21;;;;;;;4.93;3.90;;;;;;;14.38;100.00;95337.53;5114150;28;20497;-75
2021/09/10 05:44:48;;;;;;;6.53;4.72;;;;;;;14.43;100.00;95343.63;5112376;28;20035;-75
2021/09/10 05:47:15;;;;;;;6.72;4.57;;;;;;;14.48;100.00;95346.31;5116312;28;20040;-75
2021/09/10 05:49:41;;;;;;;7.53;4.78;;;;;;;14.51;99.69;95348.44;5120679;28;20032;-75
2021/09/10 05:52:10;;;;;;;10.45;4.53;;;;;;;14.52;99.11;95344.00;5117790;28;20052;-77
2021/09/10 05:54:38;;;;;;;8.80;5.53;;;;;;;14.49;99.03;95352.34;5114246;28;20032;-75
2021/09/10 05:57:05;;;;;;;6.55;4.60;;;;;;;14.43;99.83;95342.84;5106902;28;20040;-75
2021/09/10 05:59:32;;;;;;;10.85;7.25;;;;;;;14.43;100.00;95338.38;5111819;28;20059;-76
2021/09/10 06:01:59;;;;;;;8.75;4.45;;;;;;;14.50;100.00;95348.69;5109018;28;20039;-75
2021/09/10 06:04:26;;;;;;;8.52;5.00;;;;;;;14.46;99.99;95345.75;5112097;28;20039;-75
2021/09/10 06:06:53;;;;;;;7.72;5.57;;;;;;;14.43;99.80;95343.63;5109307;28;20047;-75
2021/09/10 06:09:19;;;;;;;8.63;5.80;;;;;;;14.40;99.87;95343.31;5120113;27;20533;-76
2021/09/10 06:11:46;;;;;;;6.90;4.55;;;;;;;14.22;100.00;95332.06;5116400;27;20089;-76
2021/09/10 06:14:13;;;;;;;10.57;6.28;;;;;;;14.31;100.00;95350.78;5123184;27;20523;-76
2021/09/10 06:16:40;;;;;;;7.78;4.78;;;;;;;14.29;100.00;95347.63;5099113;27;20406;-76
2021/09/10 06:19:06;;;;;;;7.80;4.65;;;;;;;14.39;100.00;95352.22;5118262;27;20046;-76
2021/09/10 06:21:33;;;;;;;6.10;4.38;;;;;;;14.37;100.00;95344.59;5100241;27;20038;-76
2021/09/10 06:24:00;;;;;;;4.93;3.83;;;;;;;14.45;100.00;95346.78;5117752;27;20127;-77
2021/09/10 06:26:27;;;;;;;7.80;5.35;;;;;;;14.50;100.00;95346.06;5115824;27;20485;-77
2021/09/10 06:28:53;;;;;;;7.95;4.97;;;;;;;14.66;100.00;95340.00;5115209;27;20044;-77
2021/09/10 06:31:20;;;;;;;7.72;4.82;;;;;;;14.79;100.00;95340.69;5112561;27;20047;-77
2021/09/10 06:33:47;;;;;;;5.90;4.47;;;;;;;14.93;100.00;95341.91;5111950;27;21786;-77
2021/09/10 06:36:14;;;;;;;6.32;4.65;;;;;;;14.94;98.69;95338.22;5120627;27;20053;-76
2021/09/10 06:38:41;;;;;;;6.50;4.70;;;;;;;15.09;98.10;95341.03;5111556;27;20500;-75
2021/09/10 06:41:08;;;;;;;6.13;4.22;;;;;;;15.28;96.30;95348.56;5116029;27;20043;-74
2021/09/10 06:43:35;;;;;;;7.50;5.15;;;;;;;15.36;94.34;95350.75;5114390;27;20796;-75
2021/09/10 06:46:02;;;;;;;7.63;4.80;;;;;;;15.51;95.60;95336.19;5113726;27;20047;-75
2021/09/10 06:48:29;;;;;;;9.32;5.82;;;;;;;15.64;94.33;95341.00;5111808;27;20047;-78
2021/09/10 06:50:56;;;;;;;8.75;4.85;;;;;;;15.72;93.06;95351.06;5105289;27;20130;-77
2021/09/10 06:53:23;;;;;;;7.65;5.70;;;;;;;15.77;92.84;95351.13;5114526;27;20497;-78
2021/09/10 06:55:50;;;;;;;6.60;5.25;;;;;;;15.91;92.31;95345.44;5105035;27;20040;-78
2021/09/10 06:58:16;;;;;;;9.95;5.63;;;;;;;16.09;92.62;95342.41;5117000;27;20112;-77
2021/09/10 07:00:43;;;;;;;13.18;4.80;;;;;;;16.17;91.86;95331.44;5115244;27;20040;-80
2021/09/10 07:03:10;;;;;;;7.53;4.53;;;;;;;16.26;91.08;95337.03;5117107;27;20047;-78
2021/09/10 07:05:41;;;;;;;9.15;5.10;;;;;;;16.28;90.09;95340.19;5115487;27;20427;-81
2021/09/10 07:08:08;;;;;;;7.75;4.38;;;;;;;16.38;89.37;95340.22;5113244;27;20059;-77
2021/09/10 07:10:35;;;;;;;8.13;5.57;;;;;;;16.41;88.90;95338.94;5114674;27;20050;-78
2021/09/10 07:13:03;;;;;;;6.78;4.72;;;;;;;16.61;87.34;95340.88;5115644;27;20428;-80
2021/09/10 07:15:30;;;;;;;6.75;3.97;;;;;;;16.66;84.97;95345.38;5117941;27;20049;-79
2021/09/10 07:17:56;;;;;;;9.40;4.82;;;;;;;16.76;84.74;95348.03;5114881;27;20071;-79
2021/09/10 07:20:23;;;;;;;5.07;3.75;;;;;;;16.93;83.32;95335.50;5116016;27;20466;-76
2021/09/10 07:22:50;;;;;;;3.92;3.17;;;;;;;17.09;83.42;95335.56;5122121;27;20043;-79
2021/09/10 07:25:17;;;;;;;4.72;3.38;;;;;;;17.27;82.99;95350.88;5121207;27;20096;-77
2021/09/10 07:27:43;;;;;;;6.70;3.80;;;;;;;17.29;83.06;95356.66;5118996;27;20420;-79
2021/09/10 07:30:11;;;;;;;8.88;4.45;;;;;;;17.27;80.70;95350.06;5116024;27;20046;-81
2021/09/10 07:32:38;;;;;;;4.50;3.90;;;;;;;17.29;79.94;95343.50;5115677;27;20036;-81
2021/09/10 07:35:05;;;;;;;5.28;3.42;;;;;;;17.45;79.73;95346.16;5112414;27;20063;-81
2021/09/10 07:37:33;;;;;;;5.40;3.13;;;;;;;17.48;78.59;95335.09;5099052;27;20043;-80
2021/09/10 07:40:00;;;;;;;3.60;2.58;;;;;;;17.69;75.98;95335.91;5101343;27;20066;-81
2021/09/10 07:42:27;;;;;;;3.47;2.45;;;;;;;17.88;74.73;95344.09;5110037;27;20047;-85
2021/09/10 07:44:54;;;;;;;4.15;3.13;;;;;;;18.00;75.00;95344.63;5119930;27;20051;-78
2021/09/10 07:47:21;;;;;;;4.65;3.00;;;;;;;18.05;75.18;95343.84;5096958;27;20039;-78
2021/09/10 07:49:48;;;;;;;5.88;3.10;;;;;;;18.19;75.53;95339.59;5111878;27;20058;-77
2021/09/10 07:52:14;;;;;;;3.17;2.78;;;;;;;18.34;73.81;95342.19;5094830;28;20498;-78
2021/09/10 07:54:41;;;;;;;4.20;3.28;;;;;;;18.39;74.74;95348.53;5096081;27;20142;-76
2021/09/10 07:57:21;;;;;;;4.47;3.05;;;;;;;18.45;73.75;95348.22;5112870;27;20035;-77
2021/09/10 07:59:48;;;;;;;4.68;2.55;;;;;;;18.47;71.98;95346.09;5113943;27;20435;-77
2021/09/10 08:02:14;;;;;;;4.13;3.05;;;;;;;18.50;73.10;95340.31;5115188;27;22036;-79
2021/09/10 08:04:42;;;;;;;3.70;2.70;;;;;;;18.69;74.90;95345.00;5112836;27;20473;-80
2021/09/10 08:07:09;;;;;;;5.95;2.97;;;;;;;18.92;70.49;95346.25;5099806;27;20058;-78
2021/09/10 08:09:56;;;;;;;9.80;3.05;;;;;;;19.14;71.82;95348.56;5119231;27;20136;-78
2021/09/10 08:12:22;;;;;;;5.30;2.60;;;;;;;19.29;70.62;95340.53;5111338;27;20055;-80
2021/09/10 08:14:49;;;;;;;5.45;3.22;;;;;;;19.34;69.95;95344.19;5097205;28;20473;-78
2021/09/10 08:17:16;;;;;;;8.80;3.80;;;;;;;19.34;70.16;95345.00;5113908;27;20046;-78
2021/09/10 08:19:43;;;;;;;8.65;3.53;;;;;;;19.45;66.94;95343.09;5113381;27;20059;-80
2021/09/10 08:22:10;;;;;;;4.65;2.67;;;;;;;19.55;67.17;95345.63;5118329;27;20904;-80
2021/09/10 08:24:52;;;;;;;5.25;2.38;;;;;;;19.73;65.13;95344.22;5079733;27;20516;-78
2021/09/10 08:27:19;;;;;;;4.20;2.55;;;;;;;19.85;63.26;95326.16;5093036;28;20036;-78
2021/09/10 08:29:50;;;;;;;4.00;2.22;;;;;;;19.98;61.42;95340.59;5115021;27;20471;-79
2021/09/10 08:32:17;;;;;;;5.00;2.42;;;;;;;20.03;64.13;95337.91;5119029;27;20042;-81
2021/09/10 08:34:44;;;;;;;7.60;2.83;;;;;;;20.10;63.54;95331.50;5099511;27;20039;-78
2021/09/10 08:37:12;;;;;;;3.83;2.65;;;;;;;20.09;61.28;95330.72;5116571;27;20156;-80
2021/09/10 08:39:39;;;;;;;2.83;2.20;;;;;;;20.24;63.33;95311.28;5116668;27;20047;-79
2021/09/10 08:42:07;;;;;;;2.70;2.10;;;;;;;20.63;62.00;95323.56;5112870;27;20032;-77
2021/09/10 08:44:37;;;;;;;4.43;2.65;;;;;;;20.87;59.66;95322.75;5118453;27;20036;-77
2021/09/10 08:47:04;;;;;;;3.70;2.10;;;;;;;21.08;58.28;95324.06;5118880;27;20049;-77
2021/09/10 08:49:33;;;;;;;3.00;2.13;;;;;;;21.20;56.16;95327.09;5119008;27;20043;-78
2021/09/10 08:52:02;;;;;;;3.85;2.78;;;;;;;21.26;56.06;95327.03;5116571;27;20039;-78
2021/09/10 08:54:29;;;;;;;5.70;1.90;;;;;;;21.40;54.37;95325.25;5118524;27;20208;-77
2021/09/10 08:56:55;;;;;;;4.68;2.30;;;;;;;21.46;54.40;95324.09;5112681;27;20398;-78
2021/09/10 08:59:22;;;;;;;2.78;2.25;;;;;;;21.79;53.33;95326.81;5117380;28;20062;-78
2021/09/10 09:01:57;;;;;;;3.38;2.13;;;;;;;22.06;54.20;95317.34;5118239;27;20051;-77
2021/09/10 09:04:35;;;;;;;7.60;2.80;;;;;;;22.07;55.87;95306.44;5118936;28;20043;-78
2021/09/10 09:07:08;;;;;;;7.43;4.07;;;;;;;22.53;53.75;95318.13;5119058;28;20039;-78
2021/09/10 09:09:46;;;;;;;4.65;2.17;;;;;;;22.90;51.68;95301.19;5118362;28;20039;-78
2021/09/10 09:12:24;;;;;;;1.85;1.63;;;;;;;23.33;48.40;95310.66;5120465;28;20032;-78
2021/09/10 09:14:55;;;;;;;2.40;1.73;;;;;;;23.60;49.17;95306.31;5120046;28;20039;-78
2021/09/10 09:17:35;;;;;;;2.67;1.98;;;;;;;23.52;46.97;95288.44;5119732;28;20047;-77
2021/09/10 09:20:17;;;;;;;4.63;1.65;;;;;;;23.73;48.64;95297.50;5117313;28;20097;-79
2021/09/10 09:22:54;;;;;;;4.07;1.83;;;;;;;23.71;48.60;95302.31;5115041;28;20496;-79
2021/09/10 09:25:33;;;;;;;2.17;1.67;;;;;;;23.94;47.49;95294.38;5090805;28;20036;-77
2021/09/10 09:28:18;;;;;;;3.15;1.83;;;;;;;24.09;45.69;95288.66;5113239;28;20047;-78
2021/09/10 09:30:48;;;;;;;2.60;1.52;;;;;;;23.96;44.49;95294.84;5115088;28;20046;-78
2021/09/10 09:33:17;;;;;;;2.63;1.77;;;;;;;23.98;44.62;95295.31;5114130;28;20039;-79
2021/09/10 09:35:45;;;;;;;6.30;2.50;;;;;;;24.07;44.51;95290.84;5099378;28;20085;-78
2021/09/10 09:38:15;;;;;;;1.80;1.35;;;;;;;24.26;42.54;95289.84;5101007;28;20151;-78
2021/09/10 09:40:43;;;;;;;2.97;1.83;;;;;;;23.88;45.75;95292.91;5120369;28;20424;-78
2021/09/10 09:43:23;;;;;;;3.28;1.60;;;;;;;24.06;43.11;95291.94;5121987;27;20034;-75
2021/09/10 09:45:52;;;;;;;5.55;1.52;;;;;;;24.20;39.51;95276.66;5114687;27;20969;-75
2021/09/10 09:48:21;;;;;;;1.60;1.30;;;;;;;24.52;38.55;95277.41;5113980;27;20080;-75
2021/09/10 09:50:50;;;;;;;2.42;1.40;;;;;;;24.79;38.88;95284.41;5119440;27;20035;-75
2021/09/10 09:53:17;;;;;;;2.17;1.65;;;;;;;25.31;37.08;95286.34;5122338;27;20391;-75
2021/09/10 09:55:46;;;;;;;3.60;1.80;;;;;;;25.62;36.24;95274.72;5119448;27;20047;-75
2021/09/10 09:58:14;;;;;;;2.38;1.30;;;;;;;26.01;34.45;95275.63;5121140;27;20039;-76
2021/09/10 10:00:43;;;;;;;3.42;1.35;;;;;;;25.87;33.94;95275.00;5116620;27;20047;-76
2021/09/10 10:03:11;;;;;;;2.28;1.15;;;;;;;26.26;34.97;95275.88;5119757;27;20049;-76
2021/09/10 10:06:04;;;;;;;12.98;1.60;;;;;;;26.65;32.87;95272.09;5114872;27;20046;-75
2021/09/10 10:08:38;;;;;;;2.25;1.33;;;;;;;27.02;36.41;95264.31;5108534;27;20409;-75
2021/09/10 10:11:13;;;;;;;6.05;1.38;;;;;;;27.27;36.55;95259.91;5115797;27;20037;-77
2021/09/10 10:13:41;;;;;;;1.77;1.17;;;;;;;26.92;36.54;95253.22;5121258;27;20096;-75
2021/09/10 10:16:39;;;;;;;2.88;1.13;;;;;;;27.35;35.03;95265.50;5122121;27;20400;-79
2021/09/10 10:19:28;;;;;;;2.00;1.10;;;;;;;27.88;33.20;95271.97;5114207;27;20039;-77
2021/09/10 10:22:03;;;;;;;2.45;1.95;;;;;;;28.05;33.21;95259.53;5119435;27;20420;-77
2021/09/10 10:24:58;;;;;;;1.88;1.40;;;;;;;28.47;31.13;95262.00;5119317;27;20043;-77
2021/09/10 10:27:32;;;;;;;1.55;1.40;;;;;;;28.27;30.39;95264.47;5119537;27;20047;-77
2021/09/10 10:30:01;;;;;;;2.67;1.50;;;;;;;28.20;31.82;95261.56;5115766;27;20043;-76
2021/09/10 10:32:31;;;;;;;3.03;1.10;;;;;;;28.38;32.01;95267.50;5121097;27;20572;-77
2021/09/10 10:35:25;;;;;;;1.63;1.20;;;;;;;28.42;31.99;95269.16;5118337;27;20058;-78
2021/09/10 10:37:52;;;;;;;5.40;1.30;;;;;;;28.77;30.99;95263.38;5119750;27;20047;-78
2021/09/10 10:40:32;;;;;;;2.45;1.63;;;;;;;28.58;31.54;95263.16;5121043;27;20035;-77
2021/09/10 10:43:10;;;;;;;1.45;0.95;;;;;;;28.84;32.86;95264.69;5114153;27;20118;-78
2021/09/10 10:45:46;;;;;;;2.72;0.90;;;;;;;29.03;32.14;95262.22;5109905;27;20043;-78
2021/09/10 10:48:28;;;;;;;1.55;0.85;;;;;;;29.45;27.41;95253.84;5115452;27;20048;-77
2021/09/10 10:50:57;;;;;;;1.52;0.90;;;;;;;29.85;28.88;95253.00;5111564;27;20537;-77
2021/09/10 10:53:24;;;;;;;1.15;1.02;;;;;;;29.65;28.87;95252.06;5111682;27;20431;-78
2021/09/10 10:55:50;;;;;;;2.13;0.93;;;;;;;28.93;30.11;95243.91;5108402;27;20096;-77
2021/09/10 10:58:27;;;;;;;3.58;2.15;;;;;;;28.78;29.59;95243.47;5105740;27;20059;-77
2021/09/10 11:01:04;;;;;;;3.70;1.20;;;;;;;27.91;30.66;95249.91;5106922;27;20133;-77
2021/09/10 11:03:32;;;;;;;1.50;1.20;;;;;;;27.44;32.79;95248.31;5110696;27;20427;-77
2021/09/10 11:06:28;;;;;;;2.08;1.08;;;;;;;27.30;30.04;95245.13;5106747;27;20559;-78
2021/09/10 11:08:55;;;;;;;1.45;0.90;;;;;;;27.35;29.90;95234.22;5112278;27;20112;-77
2021/09/10 11:11:25;;;;;;;1.63;0.73;;;;;;;27.72;30.42;95236.22;5113569;27;20046;-77
2021/09/10 11:13:52;;;;;;;1.58;0.90;;;;;;;28.16;29.34;95223.16;5094242;27;20054;-77
2021/09/10 11:16:29;;;;;;;0.90;0.60;;;;;;;28.88;26.13;95247.63;5119872;27;20043;-77
2021/09/10 11:18:57;;;;;;;2.83;0.80;;;;;;;29.07;25.80;95243.53;5113918;27;20114;-78
2021/09/10 11:21:29;;;;;;;2.33;1.25;;;;;;;29.30;26.61;95246.53;5090941;27;20834;-78
2021/09/10 11:24:04;;;;;;;1.35;0.73;;;;;;;29.95;26.46;95248.25;5116762;27;20062;-78
2021/09/10 11:26:35;;;;;;;4.82;1.17;;;;;;;30.24;23.16;95239.00;5115360;27;20096;-78
2021/09/10 11:29:09;;;;;;;2.38;0.93;;;;;;;29.75;26.54;95250.84;5113032;27;20471;-78
2021/09/10 11:31:35;;;;;;;0.68;0.43;;;;;;;30.17;23.52;95244.97;5094469;27;20031;-78
2021/09/10 11:34:02;;;;;;;3.65;0.80;;;;;;;30.06;25.42;95238.56;5111036;27;20032;-78
2021/09/10 11:36:29;;;;;;;0.93;0.50;;;;;;;30.60;23.27;95237.94;5088590;28;20047;-78